createdAt,value
2019-05-25T00:00:23.435Z,13.95
2019-05-25T00:02:52.230Z,13.85
2019-05-25T00:05:20.926Z,13.94
2019-05-25T00:07:49.655Z,14.02
2019-05-25T00:10:18.373Z,13.99
2019-05-25T00:12:47.073Z,14.00
2019-05-25T00:15:16.106Z,13.96
2019-05-25T00:17:44.820Z,13.90
2019-05-25T00:20:13.647Z,13.87
2019-05-25T00:22:42.335Z,13.81
2019-05-25T00:25:11.095Z,13.77
2019-05-25T00:27:39.741Z,13.70
2019-05-25T00:30:09.436Z,13.67
2019-05-25T00:32:38.195Z,13.64
2019-05-25T00:35:07.252Z,13.70
2019-05-25T00:37:35.987Z,13.87
2019-05-25T00:40:09.399Z,13.79
2019-05-25T00:42:38.124Z,13.78
2019-05-25T00:45:07.146Z,13.67
2019-05-25T00:47:36.214Z,13.64
2019-05-25T00:50:08.164Z,13.62
2019-05-25T00:52:36.888Z,13.62
2019-05-25T00:55:08.444Z,13.64
2019-05-25T00:57:37.079Z,13.62
2019-05-25T01:00:07.945Z,13.62
2019-05-25T01:02:37.686Z,13.60
2019-05-25T01:05:06.394Z,13.62
2019-05-25T01:07:35.215Z,13.57
2019-05-25T01:10:05.256Z,13.52
2019-05-25T01:12:33.979Z,13.47
2019-05-25T01:15:03.576Z,13.45
2019-05-25T01:17:32.429Z,13.38
2019-05-25T01:20:01.148Z,13.42
2019-05-25T01:22:29.855Z,13.36
2019-05-25T01:24:58.536Z,13.38
2019-05-25T01:27:27.277Z,13.39
2019-05-25T01:29:55.959Z,13.33
2019-05-25T01:32:24.613Z,13.32
2019-05-25T01:34:53.458Z,13.28
2019-05-25T01:37:22.139Z,13.15
2019-05-25T01:42:38.485Z,13.03
2019-05-25T01:45:08.336Z,13.01
2019-05-25T01:47:37.088Z,13.00
2019-05-25T01:50:06.721Z,13.12
2019-05-25T01:52:35.429Z,13.15
2019-05-25T01:55:05.168Z,13.07
2019-05-25T01:57:33.881Z,13.01
2019-05-25T02:00:21.548Z,12.96
2019-05-25T02:02:53.562Z,12.84
2019-05-25T02:05:22.407Z,12.78
2019-05-25T02:07:51.052Z,12.76
2019-05-25T02:10:21.194Z,12.76
2019-05-25T02:12:51.312Z,12.73
2019-05-25T02:15:21.840Z,12.65
2019-05-25T02:17:50.564Z,12.63
2019-05-25T02:20:20.730Z,12.57
2019-05-25T02:22:52.431Z,12.46
2019-05-25T02:25:21.071Z,12.36
2019-05-25T02:27:50.099Z,12.37
2019-05-25T02:30:20.690Z,12.30
2019-05-25T02:32:50.850Z,12.37
2019-05-25T02:35:30.413Z,12.25
2019-05-25T02:37:59.143Z,12.15
2019-05-25T02:40:28.264Z,12.04
2019-05-25T02:42:57.015Z,12.05
2019-05-25T02:45:25.685Z,12.16
2019-05-25T02:47:54.427Z,12.17
2019-05-25T02:50:23.546Z,12.09
2019-05-25T02:52:52.641Z,11.88
2019-05-25T02:55:33.938Z,11.90
2019-05-25T02:57:52.030Z,11.90
2019-05-25T03:00:23.707Z,11.81
2019-05-25T03:02:52.527Z,11.84
2019-05-25T03:05:21.242Z,11.75
2019-05-25T03:07:51.404Z,11.72
2019-05-25T03:10:22.172Z,11.68
2019-05-25T03:12:50.882Z,11.66
2019-05-25T03:15:19.695Z,11.61
2019-05-25T03:17:48.744Z,11.50
2019-05-25T03:20:20.819Z,11.55
2019-05-25T03:22:52.812Z,11.45
2019-05-25T03:25:21.525Z,11.41
2019-05-25T03:27:53.215Z,11.37
2019-05-25T03:30:30.741Z,11.38
2019-05-25T03:32:59.399Z,11.39
2019-05-25T03:35:28.047Z,11.49
2019-05-25T03:37:57.006Z,11.42
2019-05-25T03:40:25.732Z,11.43
2019-05-25T03:42:54.660Z,11.38
2019-05-25T03:45:23.370Z,11.40
2019-05-25T03:47:52.094Z,11.47
2019-05-25T03:50:22.956Z,11.38
2019-05-25T03:52:51.667Z,11.46
2019-05-25T03:55:20.379Z,11.56
2019-05-25T03:57:50.642Z,11.69
2019-05-25T04:00:33.643Z,11.78
2019-05-25T04:03:02.315Z,11.79
2019-05-25T04:05:30.950Z,11.84
2019-05-25T04:07:59.896Z,11.85
2019-05-25T04:10:28.655Z,11.93
2019-05-25T04:12:58.006Z,11.90
2019-05-25T04:15:26.657Z,11.98
2019-05-25T04:17:55.412Z,12.13
2019-05-25T04:20:24.446Z,12.03
2019-05-25T04:22:53.153Z,12.28
2019-05-25T04:25:22.174Z,12.37
2019-05-25T04:27:50.837Z,12.30
2019-05-25T04:30:20.738Z,12.33
2019-05-25T04:32:52.432Z,12.21
2019-05-25T04:35:21.243Z,12.23
2019-05-25T04:37:51.499Z,12.31
2019-05-25T04:40:23.323Z,12.35
2019-05-25T04:42:52.135Z,12.16
2019-05-25T04:45:20.858Z,12.15
2019-05-25T04:47:49.824Z,12.12
2019-05-25T04:50:18.932Z,12.04
2019-05-25T04:52:50.627Z,12.06
2019-05-25T04:55:19.768Z,11.96
2019-05-25T04:57:48.402Z,11.93
2019-05-25T05:00:19.038Z,11.85
2019-05-25T05:02:51.033Z,11.83
2019-05-25T05:05:19.848Z,11.73
2019-05-25T05:07:51.336Z,11.73
2019-05-25T05:10:21.913Z,11.69
2019-05-25T05:12:50.634Z,11.73
2019-05-25T05:15:20.481Z,11.69
2019-05-25T05:17:50.745Z,11.80
2019-05-25T05:20:22.254Z,11.89
2019-05-25T05:22:50.972Z,11.91
2019-05-25T05:25:19.619Z,11.86
2019-05-25T05:27:48.318Z,11.94
2019-05-25T05:30:21.332Z,11.97
2019-05-25T05:32:51.068Z,12.02
2019-05-25T05:35:19.722Z,12.13
2019-05-25T05:37:51.514Z,12.30
2019-05-25T05:40:23.777Z,12.40
2019-05-25T05:42:54.425Z,12.52
2019-05-25T05:45:23.479Z,12.52
2019-05-25T05:47:55.309Z,12.57
2019-05-25T05:50:25.463Z,12.66
2019-05-25T05:52:55.936Z,12.73
2019-05-25T05:55:32.270Z,12.89
2019-05-25T05:58:03.276Z,12.95
2019-05-25T06:00:32.249Z,12.99
2019-05-25T06:03:01.162Z,12.99
2019-05-25T06:05:30.643Z,13.12
2019-05-25T06:08:00.182Z,13.21
2019-05-25T06:10:29.199Z,13.30
2019-05-25T06:12:58.148Z,13.39
2019-05-25T06:15:27.065Z,13.47
2019-05-25T06:17:56.025Z,13.38
2019-05-25T06:20:25.692Z,13.34
2019-05-25T06:22:54.764Z,13.48
2019-05-25T06:25:23.992Z,13.45
2019-05-25T06:27:53.404Z,13.50
2019-05-25T06:30:23.528Z,13.71
2019-05-25T06:32:53.104Z,13.75
2019-05-25T06:35:22.226Z,13.80
2019-05-25T06:37:51.109Z,13.79
2019-05-25T06:40:21.940Z,13.89
2019-05-25T06:42:51.730Z,14.00
2019-05-25T06:45:23.353Z,14.11
2019-05-25T06:47:51.881Z,14.29
2019-05-25T06:50:21.948Z,14.43
2019-05-25T06:52:51.332Z,14.46
2019-05-25T06:55:21.032Z,14.46
2019-05-25T06:57:50.272Z,14.54
2019-05-25T07:00:22.956Z,14.71
2019-05-25T07:02:51.661Z,14.65
2019-05-25T07:05:24.008Z,14.85
2019-05-25T07:07:54.917Z,15.06
2019-05-25T07:10:24.178Z,14.74
2019-05-25T07:12:54.826Z,14.93
2019-05-25T07:15:25.980Z,15.05
2019-05-25T07:17:54.715Z,15.08
2019-05-25T07:20:23.535Z,14.95
2019-05-25T07:22:52.270Z,15.13
2019-05-25T07:25:21.405Z,15.12
2019-05-25T07:27:59.907Z,15.19
2019-05-25T07:30:23.461Z,15.21
2019-05-25T07:32:52.174Z,15.19
2019-05-25T07:35:20.986Z,15.44
2019-05-25T07:37:49.634Z,15.60
2019-05-25T07:40:21.669Z,15.75
2019-05-25T07:42:50.430Z,15.73
2019-05-25T07:45:20.695Z,15.44
2019-05-25T07:47:52.342Z,15.60
2019-05-25T07:50:21.427Z,15.86
2019-05-25T07:52:53.216Z,16.27
2019-05-25T07:55:21.871Z,16.38
2019-05-25T07:57:50.643Z,16.19
2019-05-25T08:00:19.979Z,16.28
2019-05-25T08:02:51.570Z,16.67
2019-05-25T08:05:23.234Z,17.12
2019-05-25T08:07:51.878Z,16.87
2019-05-25T08:10:21.425Z,16.41
2019-05-25T08:12:53.118Z,16.69
2019-05-25T08:15:22.155Z,16.74
2019-05-25T08:17:50.814Z,16.80
2019-05-25T08:20:22.431Z,16.98
2019-05-25T08:22:50.928Z,16.96
2019-05-25T08:25:19.709Z,16.46
2019-05-25T08:27:48.430Z,16.62
2019-05-25T08:30:18.734Z,16.41
2019-05-25T08:32:50.554Z,16.24
2019-05-25T08:35:21.215Z,16.07
2019-05-25T08:37:51.822Z,16.20
2019-05-25T08:40:21.603Z,16.21
2019-05-25T08:42:50.383Z,16.66
2019-05-25T08:45:20.837Z,16.16
2019-05-25T08:47:49.765Z,16.60
2019-05-25T08:50:20.517Z,16.64
2019-05-25T08:52:50.613Z,16.67
2019-05-25T08:55:19.558Z,16.92
2019-05-25T08:57:51.356Z,17.00
2019-05-25T09:00:21.499Z,17.09
2019-05-25T09:02:53.535Z,17.16
2019-05-25T09:05:22.245Z,16.86
2019-05-25T09:07:51.227Z,16.46
2019-05-25T09:10:21.332Z,16.49
2019-05-25T09:12:51.495Z,16.06
2019-05-25T09:15:23.264Z,16.58
2019-05-25T09:17:51.944Z,16.84
2019-05-25T09:20:20.766Z,16.97
2019-05-25T09:22:52.556Z,16.87
2019-05-25T09:25:21.270Z,16.80
2019-05-25T09:27:51.653Z,16.95
2019-05-25T09:30:21.519Z,16.73
2019-05-25T09:32:52.936Z,17.01
2019-05-25T09:35:22.076Z,16.98
2019-05-25T09:37:50.900Z,17.00
2019-05-25T09:40:20.118Z,17.19
2019-05-25T09:42:49.084Z,17.25
2019-05-25T09:48:07.282Z,17.07
2019-05-25T09:50:35.998Z,17.14
2019-05-25T09:53:04.817Z,17.43
2019-05-25T09:55:33.526Z,16.95
2019-05-25T09:58:02.253Z,17.33
2019-05-25T10:00:31.459Z,17.22
2019-05-25T10:03:00.190Z,17.01
2019-05-25T10:05:28.885Z,17.24
2019-05-25T10:07:57.560Z,17.50
2019-05-25T10:10:26.452Z,17.47
2019-05-25T10:12:55.081Z,17.35
2019-05-25T10:15:23.727Z,17.39
2019-05-25T10:17:52.404Z,17.04
2019-05-25T10:20:21.145Z,17.13
2019-05-25T10:22:49.830Z,16.98
2019-05-25T10:25:18.546Z,17.27
2019-05-25T10:27:47.198Z,17.53
2019-05-25T10:30:16.742Z,17.21
2019-05-25T10:32:45.398Z,17.10
2019-05-25T10:35:14.813Z,16.95
2019-05-25T10:37:43.441Z,17.08
2019-05-25T10:40:12.360Z,17.20
2019-05-25T10:42:41.027Z,17.60
2019-05-25T10:45:10.175Z,17.20
2019-05-25T10:47:38.824Z,17.50
2019-05-25T10:50:11.350Z,17.60
2019-05-25T10:52:41.390Z,17.62
2019-05-25T10:55:10.747Z,17.73
2019-05-25T10:57:39.660Z,18.07
2019-05-25T11:00:11.564Z,18.02
2019-05-25T11:02:40.679Z,18.37
2019-05-25T11:05:11.668Z,18.34
2019-05-25T11:07:40.261Z,18.55
2019-05-25T11:10:10.230Z,18.68
2019-05-25T11:12:38.918Z,18.68
2019-05-25T11:15:08.674Z,18.62
2019-05-25T11:17:37.362Z,17.86
2019-05-25T11:20:11.616Z,17.85
2019-05-25T11:22:40.322Z,17.94
2019-05-25T11:25:11.144Z,18.10
2019-05-25T11:27:40.258Z,18.11
2019-05-25T11:30:13.220Z,18.44
2019-05-25T11:32:42.512Z,18.56
2019-05-25T11:35:12.711Z,18.28
2019-05-25T11:37:41.987Z,18.52
2019-05-25T11:40:11.566Z,18.59
2019-05-25T11:42:40.810Z,18.44
2019-05-25T11:45:10.976Z,18.66
2019-05-25T11:47:40.327Z,18.60
2019-05-25T11:50:10.269Z,18.38
2019-05-25T11:52:39.427Z,18.36
2019-05-25T11:55:11.232Z,18.11
2019-05-25T11:57:41.910Z,17.95
2019-05-25T12:00:25.103Z,18.39
2019-05-25T12:02:49.174Z,18.57
2019-05-25T12:05:23.005Z,18.53
2019-05-25T12:07:53.278Z,18.58
2019-05-25T12:10:24.672Z,18.46
2019-05-25T12:12:55.453Z,18.36
2019-05-25T12:15:25.870Z,18.76
2019-05-25T12:17:54.572Z,19.43
2019-05-25T12:20:23.904Z,19.19
2019-05-25T12:22:52.628Z,18.69
2019-05-25T12:25:21.712Z,18.72
2019-05-25T12:27:50.537Z,18.65
2019-05-25T12:30:20.944Z,18.80
2019-05-25T12:32:49.652Z,18.96
2019-05-25T12:35:20.633Z,19.17
2019-05-25T12:37:51.985Z,18.55
2019-05-25T12:40:21.075Z,18.54
2019-05-25T12:42:49.788Z,18.21
2019-05-25T12:45:18.718Z,18.63
2019-05-25T12:47:47.842Z,18.65
2019-05-25T12:50:18.963Z,18.68
2019-05-25T12:52:49.703Z,18.60
2019-05-25T12:55:18.515Z,18.91
2019-05-25T12:57:47.267Z,18.71
2019-05-25T13:00:20.254Z,18.58
2019-05-25T13:02:49.031Z,19.05
2019-05-25T13:05:33.112Z,18.86
2019-05-25T13:07:49.021Z,18.51
2019-05-25T13:10:19.803Z,18.40
2019-05-25T13:12:48.713Z,18.37
2019-05-25T13:15:18.732Z,18.37
2019-05-25T13:17:50.532Z,18.08
2019-05-25T13:20:22.579Z,17.98
2019-05-25T13:22:51.632Z,18.13
2019-05-25T13:25:21.102Z,18.33
2019-05-25T13:27:51.572Z,18.32
2019-05-25T13:30:23.483Z,18.17
2019-05-25T13:32:52.690Z,18.24
2019-05-25T13:35:21.649Z,18.91
2019-05-25T13:37:51.173Z,19.52
2019-05-25T13:40:21.890Z,19.65
2019-05-25T13:42:51.479Z,19.64
2019-05-25T13:45:23.856Z,18.67
2019-05-25T13:47:53.389Z,18.78
2019-05-25T13:50:22.773Z,19.10
2019-05-25T13:52:52.036Z,19.34
2019-05-25T13:55:21.147Z,19.66
2019-05-25T13:57:51.606Z,19.63
2019-05-25T14:00:20.876Z,20.25
2019-05-25T14:02:49.944Z,20.79
2019-05-25T14:05:21.677Z,21.11
2019-05-25T14:07:50.809Z,20.53
2019-05-25T14:10:21.967Z,20.24
2019-05-25T14:12:50.608Z,20.01
2019-05-25T14:15:26.578Z,19.02
2019-05-25T14:17:56.339Z,18.88
2019-05-25T14:20:25.589Z,19.44
2019-05-25T14:22:55.769Z,19.79
2019-05-25T14:25:25.182Z,19.13
2019-05-25T14:27:54.399Z,19.21
2019-05-25T14:30:23.816Z,18.63
2019-05-25T14:32:52.904Z,18.51
2019-05-25T14:35:22.049Z,18.74
2019-05-25T14:37:50.822Z,18.49
2019-05-25T14:40:22.352Z,18.45
2019-05-25T14:42:51.106Z,18.40
2019-05-25T14:45:20.048Z,18.37
2019-05-25T14:47:51.645Z,18.57
2019-05-25T14:50:23.249Z,18.67
2019-05-25T14:52:51.976Z,18.13
2019-05-25T14:55:21.298Z,18.19
2019-05-25T14:57:51.868Z,18.29
2019-05-25T15:00:21.499Z,18.37
2019-05-25T15:02:53.208Z,18.49
2019-05-25T15:05:21.918Z,18.71
2019-05-25T15:07:50.731Z,18.41
2019-05-25T15:10:22.537Z,18.92
2019-05-25T15:12:51.563Z,19.68
2019-05-25T15:15:23.364Z,19.93
2019-05-25T15:17:52.040Z,19.66
2019-05-25T15:20:20.796Z,20.41
2019-05-25T15:22:52.486Z,19.87
2019-05-25T15:25:21.234Z,19.06
2019-05-25T15:27:51.379Z,18.74
2019-05-25T15:30:23.397Z,18.27
2019-05-25T15:32:52.085Z,18.16
2019-05-25T15:35:20.964Z,18.27
2019-05-25T15:37:49.727Z,18.00
2019-05-25T15:40:18.952Z,17.96
2019-05-25T15:42:48.338Z,18.29
2019-05-25T15:45:19.871Z,18.13
2019-05-25T15:47:51.979Z,18.36
2019-05-25T15:50:21.384Z,18.27
2019-05-25T15:52:56.377Z,18.41
2019-05-25T15:55:23.483Z,18.41
2019-05-25T15:57:52.201Z,17.87
2019-05-25T16:00:23.870Z,17.73
2019-05-25T16:02:52.565Z,17.73
2019-05-25T16:05:21.314Z,17.70
2019-05-25T16:07:52.514Z,17.72
2019-05-25T16:10:21.180Z,17.89
2019-05-25T16:12:51.366Z,17.98
2019-05-25T16:15:27.695Z,18.10
2019-05-25T16:17:56.402Z,17.82
2019-05-25T16:20:25.048Z,17.64
2019-05-25T16:22:53.719Z,17.58
2019-05-25T16:25:22.366Z,17.70
2019-05-25T16:27:51.060Z,17.32
2019-05-25T16:30:19.778Z,17.37
2019-05-25T16:33:10.779Z,17.23
2019-05-25T16:35:19.005Z,17.47
2019-05-25T16:37:48.370Z,17.66
2019-05-25T16:40:19.769Z,17.67
2019-05-25T16:42:48.709Z,17.46
2019-05-25T16:45:20.574Z,17.60
2019-05-25T16:47:50.798Z,17.43
2019-05-25T16:50:19.548Z,17.23
2019-05-25T16:52:48.347Z,16.97
2019-05-25T16:55:17.098Z,17.17
2019-05-25T16:57:46.066Z,17.10
2019-05-25T17:00:16.551Z,17.10
2019-05-25T17:02:45.271Z,17.16
2019-05-25T17:05:15.218Z,17.05
2019-05-25T17:07:45.237Z,16.94
2019-05-25T17:10:14.982Z,16.86
2019-05-25T17:12:44.447Z,16.73
2019-05-25T17:15:14.119Z,16.42
2019-05-25T17:17:43.072Z,16.49
2019-05-25T17:20:11.826Z,16.26
2019-05-25T17:22:41.146Z,16.35
2019-05-25T17:25:11.048Z,16.42
2019-05-25T17:27:39.744Z,16.44
2019-05-25T17:30:09.705Z,16.45
2019-05-25T17:32:38.438Z,16.41
2019-05-25T17:35:08.351Z,16.42
2019-05-25T17:37:37.000Z,16.28
2019-05-25T17:40:07.687Z,15.92
2019-05-25T17:42:36.372Z,15.98
2019-05-25T17:45:08.667Z,15.81
2019-05-25T17:47:37.376Z,15.90
2019-05-25T17:50:07.646Z,15.89
2019-05-25T17:52:36.299Z,15.85
2019-05-25T17:55:06.904Z,15.77
2019-05-25T17:57:35.616Z,15.70
2019-05-25T18:00:06.557Z,15.61
2019-05-25T18:02:35.493Z,15.55
2019-05-25T18:05:06.046Z,15.49
2019-05-25T18:07:34.864Z,15.39
2019-05-25T18:10:05.416Z,15.22
2019-05-25T18:12:34.074Z,15.21
2019-05-25T18:15:02.844Z,15.12
2019-05-25T18:17:31.576Z,15.19
2019-05-25T18:20:00.700Z,15.01
2019-05-25T18:22:29.415Z,15.10
2019-05-25T18:24:58.131Z,15.06
2019-05-25T18:27:26.808Z,15.06
2019-05-25T18:29:55.554Z,14.95
2019-05-25T18:32:24.267Z,14.91
2019-05-25T18:34:52.991Z,14.95
2019-05-25T18:37:21.718Z,14.89
2019-05-25T18:39:50.435Z,14.99
2019-05-25T18:42:20.598Z,14.90
2019-05-25T18:44:50.171Z,14.93
2019-05-25T18:47:19.196Z,14.82
2019-05-25T18:49:48.764Z,14.75
2019-05-25T18:52:19.937Z,14.65
2019-05-25T18:54:51.440Z,14.44
2019-05-25T18:57:21.172Z,14.28
2019-05-25T18:59:49.921Z,14.18
2019-05-25T19:02:21.819Z,13.94
2019-05-25T19:04:59.626Z,13.89
2019-05-25T19:07:21.070Z,13.80
2019-05-25T19:09:49.849Z,13.79
2019-05-25T19:12:18.601Z,13.90
2019-05-25T19:14:47.625Z,13.84
2019-05-25T19:17:16.325Z,13.69
2019-05-25T19:19:45.045Z,13.69
2019-05-25T19:22:13.756Z,13.60
2019-05-25T19:24:43.299Z,13.45
2019-05-25T19:27:11.950Z,13.37
2019-05-25T19:29:40.722Z,13.39
2019-05-25T19:32:09.535Z,13.35
2019-05-25T19:34:38.251Z,13.27
2019-05-25T19:37:06.957Z,13.13
2019-05-25T19:39:35.672Z,12.97
2019-05-25T19:42:04.595Z,12.95
2019-05-25T19:44:33.298Z,13.05
2019-05-25T19:47:02.117Z,13.07
2019-05-25T19:49:30.826Z,13.13
2019-05-25T19:51:59.541Z,13.04
2019-05-25T19:54:28.259Z,13.00
2019-05-25T19:56:56.968Z,13.11
2019-05-25T19:59:25.682Z,13.15
2019-05-25T20:01:54.434Z,13.08
2019-05-25T20:04:23.118Z,13.11
2019-05-25T20:06:51.838Z,13.10
2019-05-25T20:09:20.551Z,13.01
2019-05-25T20:11:49.515Z,13.03
2019-05-25T20:14:18.248Z,12.95
2019-05-25T20:16:46.737Z,12.81
2019-05-25T20:19:15.361Z,12.80
2019-05-25T20:21:44.082Z,12.79
2019-05-25T20:24:12.925Z,12.82
2019-05-25T20:26:41.966Z,12.78
2019-05-25T20:29:10.718Z,12.74
2019-05-25T20:31:39.434Z,12.56
2019-05-25T20:34:08.469Z,12.46
2019-05-25T20:36:37.607Z,12.38
2019-05-25T20:39:07.683Z,12.35
2019-05-25T20:41:36.634Z,12.26
2019-05-25T20:44:05.819Z,12.10
2019-05-25T20:46:34.650Z,12.04
2019-05-25T20:49:03.375Z,11.98
2019-05-25T20:51:32.446Z,11.85
2019-05-25T20:54:01.197Z,11.70
2019-05-25T20:56:29.951Z,11.69
2019-05-25T20:58:58.654Z,11.53
2019-05-25T21:01:27.323Z,11.55
2019-05-25T21:03:56.392Z,11.48
2019-05-25T21:06:25.206Z,11.54
2019-05-25T21:08:53.816Z,11.55
2019-05-25T21:11:22.546Z,11.44
2019-05-25T21:13:51.272Z,11.39
2019-05-25T21:16:21.531Z,11.39
2019-05-25T21:18:53.023Z,11.41
2019-05-25T21:21:21.741Z,11.35
2019-05-25T21:23:50.453Z,11.37
2019-05-25T21:26:20.953Z,11.37
2019-05-25T21:28:49.679Z,11.32
2019-05-25T21:31:18.394Z,11.24
2019-05-25T21:33:49.500Z,11.19
2019-05-25T21:36:19.832Z,11.13
2019-05-25T21:38:48.656Z,11.14
2019-05-25T21:41:17.583Z,11.02
2019-05-25T21:43:46.290Z,10.94
2019-05-25T21:46:14.914Z,10.89
2019-05-25T21:48:43.636Z,10.85
2019-05-25T21:51:12.744Z,10.85
2019-05-25T21:53:41.456Z,10.88
2019-05-25T21:56:10.183Z,10.83
2019-05-25T21:58:38.998Z,10.83
2019-05-25T22:01:08.147Z,10.79
2019-05-25T22:03:37.235Z,10.73
2019-05-25T22:06:05.878Z,10.69
2019-05-25T22:08:34.661Z,10.68
2019-05-25T22:11:03.285Z,10.70
2019-05-25T22:13:31.923Z,10.62
2019-05-25T22:16:00.640Z,10.55
2019-05-25T22:18:29.290Z,10.54
2019-05-25T22:20:58.365Z,10.44
2019-05-25T22:23:27.181Z,10.46
2019-05-25T22:25:55.896Z,10.37
2019-05-25T22:28:24.619Z,10.37
2019-05-25T22:30:53.335Z,10.31
2019-05-25T22:33:22.044Z,10.23
2019-05-25T22:35:50.755Z,10.24
2019-05-25T22:38:22.150Z,10.25
2019-05-25T22:40:50.883Z,10.22
2019-05-25T22:43:23.051Z,10.08
2019-05-25T22:45:51.760Z,10.10
2019-05-25T22:48:20.476Z,10.11
2019-05-25T22:50:50.589Z,10.06
2019-05-25T22:53:20.672Z,9.97
2019-05-25T22:55:50.851Z,9.86
2019-05-25T22:58:22.545Z,9.81
2019-05-25T23:00:51.263Z,9.69
2019-05-25T23:03:21.419Z,9.68
2019-05-25T23:05:51.619Z,9.69
2019-05-25T23:08:23.158Z,9.65
2019-05-25T23:10:51.870Z,9.62
2019-05-25T23:13:20.598Z,9.67
2019-05-25T23:15:50.768Z,9.60
2019-05-25T23:18:22.742Z,9.59
2019-05-25T23:20:51.456Z,9.46
2019-05-25T23:23:21.607Z,9.45
2019-05-25T23:25:53.495Z,9.48
2019-05-25T23:28:23.025Z,9.42
2019-05-25T23:30:51.816Z,9.48
2019-05-25T23:33:20.555Z,9.45
2019-05-25T23:35:50.636Z,9.38
2019-05-25T23:38:22.312Z,9.34
2019-05-25T23:40:51.021Z,9.31
2019-05-25T23:43:19.751Z,9.34
2019-05-25T23:45:48.588Z,9.37
2019-05-25T23:48:17.935Z,9.42
2019-05-25T23:50:46.584Z,9.41
2019-05-25T23:53:15.262Z,9.45
2019-05-25T23:55:43.973Z,9.39
2019-05-25T23:58:12.686Z,9.45
